createdAt,value
2023-01-29T00:01:57.929Z,6.60
2023-01-29T00:04:25.179Z,6.70
2023-01-29T00:06:52.005Z,6.70
2023-01-29T00:09:19.199Z,6.60
2023-01-29T00:11:46.112Z,6.70
2023-01-29T00:14:13.734Z,6.80
2023-01-29T00:16:40.560Z,6.60
2023-01-29T00:19:07.408Z,6.70
2023-01-29T00:21:34.730Z,6.60
2023-01-29T00:24:01.764Z,6.60
2023-01-29T00:26:28.872Z,6.50
2023-01-29T00:29:00.665Z,6.60
2023-01-29T00:31:27.731Z,6.60
2023-01-29T00:33:54.770Z,6.70
2023-01-29T00:36:22.880Z,6.80
2023-01-29T00:39:02.762Z,6.70
2023-01-29T00:41:51.225Z,6.60
2023-01-29T00:44:37.315Z,6.80
2023-01-29T00:47:25.579Z,6.60
2023-01-29T00:49:52.476Z,6.60
2023-01-29T00:52:25.314Z,6.70
2023-01-29T00:54:53.583Z,6.50
2023-01-29T00:57:20.558Z,6.70
2023-01-29T00:59:47.424Z,6.40
2023-01-29T01:02:33.029Z,6.60
2023-01-29T01:04:59.867Z,6.60
2023-01-29T01:07:26.636Z,6.60
2023-01-29T01:10:12.259Z,6.50
2023-01-29T01:12:39.076Z,6.60
2023-01-29T01:15:06.387Z,6.80
2023-01-29T01:17:33.330Z,6.60
2023-01-29T01:20:00.093Z,6.70
2023-01-29T01:22:27.415Z,6.70
2023-01-29T01:24:54.271Z,6.70
2023-01-29T01:27:21.079Z,6.60
2023-01-29T01:29:47.969Z,6.50
2023-01-29T01:32:15.965Z,6.50
2023-01-29T01:34:45.150Z,6.50
2023-01-29T01:37:12.111Z,6.50
2023-01-29T01:39:38.952Z,6.60
2023-01-29T01:42:11.628Z,6.60
2023-01-29T01:45:01.459Z,6.50
2023-01-29T01:47:34.644Z,6.50
2023-01-29T01:50:11.807Z,6.60
2023-01-29T01:52:43.339Z,6.70
2023-01-29T01:55:13.484Z,6.60
2023-01-29T01:57:43.660Z,6.50
2023-01-29T02:00:14.209Z,6.80
2023-01-29T02:03:03.548Z,6.60
2023-01-29T02:05:52.352Z,6.70
2023-01-29T02:08:50.732Z,6.60
2023-01-29T02:11:18.081Z,6.70
2023-01-29T02:13:45.255Z,6.50
2023-01-29T02:16:12.178Z,6.70
2023-01-29T02:18:39.503Z,6.50
2023-01-29T02:21:25.406Z,6.60
2023-01-29T02:24:31.189Z,6.60
2023-01-29T02:27:15.403Z,6.40
2023-01-29T02:30:23.004Z,6.60
2023-01-29T02:33:21.438Z,6.60
2023-01-29T02:36:18.467Z,6.60
2023-01-29T02:38:55.832Z,6.60
2023-01-29T02:41:30.159Z,6.60
2023-01-29T02:44:08.094Z,6.60
2023-01-29T02:46:43.470Z,6.60
2023-01-29T02:49:33.536Z,6.60
2023-01-29T02:52:17.051Z,6.60
2023-01-29T02:54:55.731Z,6.50
2023-01-29T02:57:29.295Z,6.60
2023-01-29T02:59:58.789Z,6.70
2023-01-29T03:02:34.059Z,6.50
2023-01-29T03:05:04.459Z,6.70
2023-01-29T03:07:42.629Z,6.50
2023-01-29T03:10:51.172Z,6.60
2023-01-29T03:13:29.248Z,6.60
2023-01-29T03:16:03.025Z,6.50
2023-01-29T03:18:36.851Z,6.70
2023-01-29T03:21:28.887Z,6.70
2023-01-29T03:24:16.535Z,6.50
2023-01-29T03:27:02.675Z,6.40
2023-01-29T03:29:53.104Z,6.50
2023-01-29T03:32:22.912Z,6.50
2023-01-29T03:34:56.195Z,6.60
2023-01-29T03:37:59.449Z,6.60
2023-01-29T03:40:28.012Z,6.50
2023-01-29T03:43:18.978Z,6.50
2023-01-29T03:45:51.547Z,6.60
2023-01-29T03:48:38.736Z,6.60
2023-01-29T03:51:27.353Z,6.60
2023-01-29T03:54:04.327Z,6.70
2023-01-29T03:56:54.350Z,6.70
2023-01-29T03:59:30.023Z,6.60
2023-01-29T04:02:01.556Z,6.60
2023-01-29T04:04:32.025Z,6.50
2023-01-29T04:07:08.237Z,6.40
2023-01-29T04:09:42.568Z,6.60
2023-01-29T04:12:11.555Z,6.50
2023-01-29T04:14:39.292Z,6.50
2023-01-29T04:17:18.772Z,6.50
2023-01-29T04:19:45.678Z,6.60
2023-01-29T04:22:19.046Z,6.60
2023-01-29T04:24:47.900Z,6.60
2023-01-29T04:27:43.397Z,6.50
2023-01-29T04:30:40.629Z,6.70
2023-01-29T04:33:28.993Z,6.40
2023-01-29T04:36:32.372Z,6.50
2023-01-29T04:39:18.794Z,6.70
2023-01-29T04:42:23.181Z,6.60
2023-01-29T04:45:12.450Z,6.50
2023-01-29T04:47:45.150Z,6.70
2023-01-29T04:50:38.165Z,6.50
2023-01-29T04:53:17.896Z,6.60
2023-01-29T04:55:53.326Z,6.40
2023-01-29T04:58:25.714Z,6.50
2023-01-29T05:00:54.868Z,6.50
2023-01-29T05:03:25.807Z,6.50
2023-01-29T05:05:55.780Z,6.50
2023-01-29T05:08:26.031Z,6.50
2023-01-29T05:10:54.815Z,6.40
2023-01-29T05:13:23.426Z,6.30
2023-01-29T05:16:02.276Z,6.50
2023-01-29T05:18:30.639Z,6.50
2023-01-29T05:20:59.114Z,6.60
2023-01-29T05:23:25.968Z,6.40
2023-01-29T05:25:52.946Z,6.60
2023-01-29T05:28:20.043Z,6.50
2023-01-29T05:30:49.139Z,6.50
2023-01-29T05:33:21.986Z,6.60
2023-01-29T05:35:49.446Z,6.50
2023-01-29T05:38:17.562Z,6.30
2023-01-29T05:40:44.981Z,6.40
2023-01-29T05:43:19.591Z,6.50
2023-01-29T05:46:01.895Z,6.30
2023-01-29T05:48:29.740Z,6.40
2023-01-29T05:51:04.226Z,6.40
2023-01-29T05:53:31.945Z,6.40
2023-01-29T05:56:01.944Z,6.40
2023-01-29T05:58:30.808Z,6.50
2023-01-29T06:00:57.993Z,6.30
2023-01-29T06:03:25.080Z,6.40
2023-01-29T06:05:51.844Z,6.40
2023-01-29T06:08:18.636Z,6.50
2023-01-29T06:10:45.459Z,6.40
2023-01-29T06:13:12.275Z,6.60
2023-01-29T06:15:40.934Z,6.50
2023-01-29T06:18:07.806Z,6.40
2023-01-29T06:20:34.648Z,6.40
2023-01-29T06:23:01.464Z,6.50
2023-01-29T06:25:28.278Z,6.40
2023-01-29T06:27:56.230Z,6.50
2023-01-29T06:30:24.556Z,6.50
2023-01-29T06:32:51.426Z,6.30
2023-01-29T06:35:18.200Z,6.50
2023-01-29T06:37:45.014Z,6.40
2023-01-29T06:40:12.334Z,6.30
2023-01-29T06:42:39.107Z,6.40
2023-01-29T06:45:06.367Z,6.50
2023-01-29T06:47:33.265Z,6.30
2023-01-29T06:50:00.258Z,6.30
2023-01-29T06:52:29.053Z,6.20
2023-01-29T06:54:56.703Z,6.40
2023-01-29T06:57:23.801Z,6.30
2023-01-29T06:59:50.566Z,6.30
2023-01-29T07:02:18.033Z,6.40
2023-01-29T07:04:44.911Z,6.30
2023-01-29T07:07:13.389Z,6.50
2023-01-29T07:09:41.565Z,6.40
2023-01-29T07:12:09.813Z,6.50
2023-01-29T07:14:36.684Z,6.40
2023-01-29T07:17:04.007Z,6.40
2023-01-29T07:19:30.863Z,6.50
2023-01-29T07:21:57.719Z,6.50
2023-01-29T07:24:24.949Z,6.60
2023-01-29T07:26:52.839Z,6.60
2023-01-29T07:29:19.616Z,6.60
2023-01-29T07:31:46.445Z,6.60
2023-01-29T07:34:13.286Z,6.60
2023-01-29T07:36:40.155Z,6.50
2023-01-29T07:39:06.868Z,6.50
2023-01-29T07:41:33.701Z,6.60
2023-01-29T07:44:00.495Z,6.80
2023-01-29T07:46:27.329Z,6.60
2023-01-29T07:48:54.232Z,6.80
2023-01-29T07:51:21.478Z,6.50
2023-01-29T07:53:48.727Z,6.90
2023-01-29T07:56:15.630Z,6.90
2023-01-29T07:58:42.542Z,6.90
2023-01-29T08:01:09.547Z,7.00
2023-01-29T08:03:36.743Z,7.00
2023-01-29T08:06:04.604Z,7.10
2023-01-29T08:08:31.698Z,7.20
2023-01-29T08:11:02.642Z,7.10
2023-01-29T08:13:29.774Z,7.20
2023-01-29T08:16:01.178Z,7.30
2023-01-29T08:18:28.387Z,7.10
2023-01-29T08:21:01.101Z,7.30
2023-01-29T08:23:28.113Z,7.50
2023-01-29T08:25:55.138Z,7.30
2023-01-29T08:28:22.234Z,7.50
2023-01-29T08:30:49.101Z,7.60
2023-01-29T08:33:17.574Z,7.40
2023-01-29T08:35:50.641Z,7.70
2023-01-29T08:38:17.882Z,7.70
2023-01-29T08:40:44.723Z,7.80
2023-01-29T08:43:13.602Z,7.70
2023-01-29T08:45:42.385Z,8.00
2023-01-29T08:48:11.160Z,8.00
2023-01-29T08:50:38.985Z,8.10
2023-01-29T08:53:08.235Z,8.20
2023-01-29T08:55:41.471Z,8.20
2023-01-29T08:58:11.516Z,8.20
2023-01-29T09:00:38.795Z,8.30
2023-01-29T09:03:07.857Z,8.30
2023-01-29T09:05:37.335Z,8.40
2023-01-29T09:08:05.573Z,8.40
2023-01-29T09:10:32.404Z,8.40
2023-01-29T09:12:59.294Z,8.50
2023-01-29T09:15:26.216Z,8.60
2023-01-29T09:17:53.227Z,8.60
2023-01-29T09:20:20.431Z,8.60
2023-01-29T09:22:47.700Z,8.70
2023-01-29T09:25:15.297Z,8.80
2023-01-29T09:27:42.330Z,8.80
2023-01-29T09:30:09.901Z,8.90
2023-01-29T09:32:53.344Z,8.90
2023-01-29T09:35:22.034Z,9.00
2023-01-29T09:37:49.957Z,8.90
2023-01-29T09:40:26.861Z,9.00
2023-01-29T09:43:20.279Z,8.90
2023-01-29T09:46:19.566Z,9.20
2023-01-29T09:48:48.120Z,9.30
2023-01-29T09:51:31.573Z,9.50
2023-01-29T09:54:10.842Z,9.50
2023-01-29T09:56:37.737Z,9.70
2023-01-29T09:59:04.789Z,9.70
2023-01-29T10:01:40.698Z,9.80
2023-01-29T10:04:16.331Z,9.80
2023-01-29T10:06:58.579Z,9.90
2023-01-29T10:09:43.286Z,9.80
2023-01-29T10:12:22.514Z,9.70
2023-01-29T10:14:52.407Z,9.70
2023-01-29T10:17:28.085Z,9.70
2023-01-29T10:20:15.936Z,9.60
2023-01-29T10:22:54.702Z,9.60
2023-01-29T10:25:23.048Z,9.70
2023-01-29T10:27:57.167Z,9.70
2023-01-29T10:30:29.840Z,9.80
2023-01-29T10:33:02.595Z,9.80
2023-01-29T10:35:50.127Z,9.80
2023-01-29T10:38:52.774Z,9.80
2023-01-29T10:41:34.388Z,9.80
2023-01-29T10:44:25.326Z,9.80
2023-01-29T10:47:16.458Z,9.80
2023-01-29T10:49:56.840Z,9.80
2023-01-29T10:52:50.834Z,9.70
2023-01-29T10:55:35.042Z,9.80
2023-01-29T10:58:15.260Z,9.90
2023-01-29T11:00:42.757Z,9.90
2023-01-29T11:03:30.380Z,9.90
2023-01-29T11:06:08.021Z,9.90
2023-01-29T11:08:40.572Z,9.80
2023-01-29T11:11:14.856Z,9.90
2023-01-29T11:14:07.142Z,10.00
2023-01-29T11:16:43.107Z,10.00
2023-01-29T11:19:10.561Z,10.10
2023-01-29T11:21:57.800Z,10.10
2023-01-29T11:24:25.472Z,10.20
2023-01-29T11:26:55.192Z,10.20
2023-01-29T11:29:37.228Z,10.30
2023-01-29T11:32:13.114Z,10.50
2023-01-29T11:35:19.365Z,10.50
2023-01-29T11:37:47.134Z,10.50
2023-01-29T11:40:20.662Z,10.50
2023-01-29T11:42:48.120Z,10.50
2023-01-29T11:45:32.347Z,10.50
2023-01-29T11:48:00.649Z,10.50
2023-01-29T11:50:33.487Z,10.60
2023-01-29T11:53:01.515Z,10.60
2023-01-29T11:55:48.574Z,10.50
2023-01-29T11:58:22.899Z,10.60
2023-01-29T12:00:51.469Z,10.50
2023-01-29T12:03:53.909Z,10.50
2023-01-29T12:06:24.211Z,10.60
2023-01-29T12:09:02.446Z,10.50
2023-01-29T12:11:34.327Z,10.60
2023-01-29T12:14:03.977Z,10.60
2023-01-29T12:16:40.164Z,10.60
2023-01-29T12:19:31.521Z,10.70
2023-01-29T12:22:04.508Z,10.70
2023-01-29T12:24:34.132Z,10.70
2023-01-29T12:27:28.633Z,10.80
2023-01-29T12:30:22.275Z,10.70
2023-01-29T12:32:56.985Z,10.70
2023-01-29T12:35:30.545Z,10.70
2023-01-29T12:38:20.339Z,10.80
2023-01-29T12:40:51.530Z,10.80
2023-01-29T12:43:26.311Z,10.80
2023-01-29T12:45:55.618Z,10.80
2023-01-29T12:48:34.096Z,10.70
2023-01-29T12:51:14.233Z,10.70
2023-01-29T12:53:48.033Z,10.80
2023-01-29T12:56:38.899Z,10.70
2023-01-29T12:59:18.950Z,10.80
2023-01-29T13:01:55.021Z,11.00
2023-01-29T13:04:28.026Z,11.00
2023-01-29T13:07:03.029Z,11.00
2023-01-29T13:09:33.355Z,11.10
2023-01-29T13:12:07.195Z,11.20
2023-01-29T13:14:52.876Z,11.10
2023-01-29T13:17:46.585Z,11.10
2023-01-29T13:20:16.051Z,11.10
2023-01-29T13:22:44.184Z,11.10
2023-01-29T13:25:17.226Z,11.10
2023-01-29T13:27:47.601Z,11.10
2023-01-29T13:30:31.018Z,11.10
2023-01-29T13:33:09.711Z,11.10
2023-01-29T13:35:40.582Z,11.30
2023-01-29T13:38:23.813Z,11.20
2023-01-29T13:40:51.572Z,11.20
2023-01-29T13:43:23.481Z,11.20
2023-01-29T13:45:52.926Z,11.20
2023-01-29T13:48:28.978Z,11.10
2023-01-29T13:50:59.848Z,11.00
2023-01-29T13:53:36.893Z,10.90
2023-01-29T13:56:28.785Z,10.90
2023-01-29T13:58:57.218Z,10.90
2023-01-29T14:01:46.912Z,10.90
2023-01-29T14:04:19.593Z,11.00
2023-01-29T14:06:52.585Z,11.00
2023-01-29T14:09:38.559Z,11.00
2023-01-29T14:12:25.411Z,10.90
2023-01-29T14:15:04.354Z,10.80
2023-01-29T14:17:31.396Z,10.90
2023-01-29T14:20:19.781Z,10.80
2023-01-29T14:22:55.731Z,10.80
2023-01-29T14:25:29.589Z,10.80
2023-01-29T14:27:58.883Z,10.70
2023-01-29T14:30:30.225Z,10.80
2023-01-29T14:32:57.732Z,10.70
2023-01-29T14:35:27.469Z,10.70
2023-01-29T14:37:59.464Z,10.70
2023-01-29T14:40:29.795Z,10.60
2023-01-29T14:42:56.611Z,10.70
2023-01-29T14:45:23.591Z,10.70
2023-01-29T14:47:50.395Z,10.70
2023-01-29T14:50:29.306Z,10.60
2023-01-29T14:53:00.549Z,10.50
2023-01-29T14:55:27.311Z,10.50
2023-01-29T14:57:56.808Z,10.50
2023-01-29T15:00:29.632Z,10.40
2023-01-29T15:03:02.038Z,10.30
2023-01-29T15:05:32.626Z,10.30
2023-01-29T15:08:23.955Z,10.30
2023-01-29T15:11:14.441Z,10.30
2023-01-29T15:14:06.653Z,10.20
2023-01-29T15:16:52.234Z,10.20
2023-01-29T15:19:27.169Z,10.00
2023-01-29T15:22:16.459Z,9.90
2023-01-29T15:24:45.571Z,10.00
2023-01-29T15:27:20.223Z,10.00
2023-01-29T15:30:08.157Z,9.90
2023-01-29T15:32:39.947Z,9.80
2023-01-29T15:35:33.777Z,9.90
2023-01-29T15:38:16.678Z,9.80
2023-01-29T15:40:56.728Z,9.80
2023-01-29T15:43:25.058Z,9.70
2023-01-29T15:45:55.511Z,9.60
2023-01-29T15:48:34.942Z,9.60
2023-01-29T15:51:04.833Z,9.60
2023-01-29T15:53:37.336Z,9.60
2023-01-29T15:56:12.176Z,9.50
2023-01-29T15:58:40.095Z,9.60
2023-01-29T16:01:07.201Z,9.50
2023-01-29T16:03:36.207Z,9.50
2023-01-29T16:06:03.452Z,9.40
2023-01-29T16:08:30.819Z,9.40
2023-01-29T16:11:00.630Z,9.40
2023-01-29T16:13:34.651Z,9.30
2023-01-29T16:16:04.280Z,9.30
2023-01-29T16:18:36.292Z,9.10
2023-01-29T16:21:12.783Z,9.10
2023-01-29T16:23:48.292Z,9.20
2023-01-29T16:26:21.796Z,9.10
2023-01-29T16:28:48.820Z,9.10
2023-01-29T16:31:23.798Z,9.00
2023-01-29T16:33:51.024Z,9.00
2023-01-29T16:36:20.488Z,9.00
2023-01-29T16:39:02.870Z,9.00
2023-01-29T16:41:40.227Z,8.90
2023-01-29T16:44:16.347Z,9.00
2023-01-29T16:46:48.006Z,8.80
2023-01-29T16:49:40.906Z,8.90
2023-01-29T16:52:29.841Z,8.80
2023-01-29T16:55:20.375Z,8.80
2023-01-29T16:57:56.516Z,8.80
2023-01-29T17:00:31.188Z,8.80
2023-01-29T17:03:05.575Z,8.70
2023-01-29T17:05:35.666Z,8.80
2023-01-29T17:08:04.077Z,8.70
2023-01-29T17:10:32.409Z,8.70
2023-01-29T17:13:17.652Z,8.60
2023-01-29T17:15:47.833Z,8.40
2023-01-29T17:18:22.163Z,8.60
2023-01-29T17:20:53.136Z,8.50
2023-01-29T17:23:20.492Z,8.60
2023-01-29T17:25:49.704Z,8.40
2023-01-29T17:28:17.799Z,8.50
2023-01-29T17:30:53.339Z,8.50
2023-01-29T17:33:26.005Z,8.30
2023-01-29T17:35:53.130Z,8.30
2023-01-29T17:38:26.330Z,8.40
2023-01-29T17:41:11.922Z,8.40
2023-01-29T17:43:38.859Z,8.30
2023-01-29T17:46:06.778Z,8.20
2023-01-29T17:48:33.764Z,8.30
2023-01-29T17:51:04.607Z,8.30
2023-01-29T17:53:45.236Z,8.20
2023-01-29T17:56:18.073Z,8.30
2023-01-29T17:58:44.856Z,8.30
2023-01-29T18:01:12.528Z,8.30
2023-01-29T18:03:39.357Z,8.30
2023-01-29T18:06:10.971Z,8.20
2023-01-29T18:08:39.623Z,8.30
2023-01-29T18:11:06.740Z,8.20
2023-01-29T18:13:36.155Z,8.30
2023-01-29T18:16:03.166Z,8.30
2023-01-29T18:18:30.146Z,8.20
2023-01-29T18:20:56.951Z,8.20
2023-01-29T18:23:23.767Z,8.00
2023-01-29T18:25:50.542Z,8.20
2023-01-29T18:28:18.083Z,8.20
2023-01-29T18:30:47.488Z,8.10
2023-01-29T18:33:16.178Z,8.10
2023-01-29T18:35:48.268Z,8.10
2023-01-29T18:38:15.192Z,8.20
2023-01-29T18:40:42.207Z,8.10
2023-01-29T18:43:09.351Z,8.20
2023-01-29T18:45:36.246Z,8.00
2023-01-29T18:48:03.763Z,8.20
2023-01-29T18:50:30.641Z,8.00
2023-01-29T18:52:57.704Z,8.20
2023-01-29T18:55:26.563Z,7.90
2023-01-29T18:58:26.785Z,7.90
2023-01-29T19:00:41.099Z,7.90
2023-01-29T19:03:07.927Z,8.10
2023-01-29T19:05:34.865Z,8.10
2023-01-29T19:08:01.954Z,7.80
2023-01-29T19:10:28.875Z,7.90
2023-01-29T19:12:55.665Z,7.90
2023-01-29T19:15:22.996Z,7.90
2023-01-29T19:17:53.114Z,7.70
2023-01-29T19:20:20.129Z,7.70
2023-01-29T19:22:47.146Z,7.90
2023-01-29T19:25:14.422Z,7.70
2023-01-29T19:27:41.259Z,7.60
2023-01-29T19:30:08.857Z,7.70
2023-01-29T19:32:35.695Z,7.70
2023-01-29T19:35:02.664Z,7.80
2023-01-29T19:37:30.977Z,7.70
2023-01-29T19:39:57.957Z,7.70
2023-01-29T19:42:24.838Z,7.90
2023-01-29T19:44:53.438Z,7.60
2023-01-29T19:47:21.092Z,7.80
2023-01-29T19:49:48.112Z,7.70
2023-01-29T19:52:35.902Z,7.80
2023-01-29T19:55:08.857Z,7.60
2023-01-29T19:57:35.677Z,7.60
2023-01-29T20:00:04.235Z,7.30
2023-01-29T20:02:32.505Z,7.70
2023-01-29T20:05:01.211Z,7.80
2023-01-29T20:07:28.178Z,7.80
2023-01-29T20:09:54.999Z,7.70
2023-01-29T20:12:21.919Z,7.70
2023-01-29T20:14:49.096Z,7.80
2023-01-29T20:17:17.024Z,7.80
2023-01-29T20:19:45.150Z,7.80
2023-01-29T20:22:13.241Z,7.70
2023-01-29T20:24:42.539Z,7.80
2023-01-29T20:27:10.781Z,7.80
2023-01-29T20:29:38.407Z,7.80
2023-01-29T20:32:07.947Z,7.80
2023-01-29T20:34:35.976Z,7.90
2023-01-29T20:37:02.911Z,7.80
2023-01-29T20:39:30.000Z,7.80
2023-01-29T20:41:57.412Z,7.90
2023-01-29T20:44:25.341Z,7.70
2023-01-29T20:46:52.618Z,7.60
2023-01-29T20:49:20.069Z,7.50
2023-01-29T20:51:46.968Z,7.60
2023-01-29T20:54:15.425Z,7.40
2023-01-29T20:56:44.641Z,7.50
2023-01-29T20:59:12.318Z,7.20
2023-01-29T21:01:39.357Z,7.30
2023-01-29T21:04:06.275Z,7.40
2023-01-29T21:06:33.227Z,7.10
2023-01-29T21:09:00.146Z,7.20
2023-01-29T21:11:27.168Z,7.20
2023-01-29T21:13:57.673Z,7.20
2023-01-29T21:16:28.915Z,7.20
2023-01-29T21:18:57.397Z,7.20
2023-01-29T21:21:24.500Z,7.10
2023-01-29T21:23:51.393Z,7.10
2023-01-29T21:26:18.999Z,7.10
2023-01-29T21:28:46.500Z,7.00
2023-01-29T21:31:15.070Z,7.10
2023-01-29T21:33:42.368Z,7.00
2023-01-29T21:36:10.325Z,7.00
2023-01-29T21:38:37.204Z,7.00
2023-01-29T21:41:06.576Z,6.90
2023-01-29T21:43:33.822Z,6.90
2023-01-29T21:46:05.060Z,7.00
2023-01-29T21:48:32.226Z,7.00
2023-01-29T21:50:59.117Z,6.90
2023-01-29T21:53:25.900Z,6.80
2023-01-29T21:55:58.724Z,6.70
2023-01-29T21:58:25.476Z,6.70
2023-01-29T22:00:52.295Z,6.60
2023-01-29T22:03:19.164Z,6.90
2023-01-29T22:05:46.004Z,6.50
2023-01-29T22:08:12.769Z,6.60
2023-01-29T22:10:39.643Z,6.60
2023-01-29T22:13:06.622Z,6.60
2023-01-29T22:15:33.601Z,6.50
2023-01-29T22:18:00.463Z,6.40
2023-01-29T22:20:30.730Z,6.40
2023-01-29T22:22:59.424Z,6.30
2023-01-29T22:25:27.096Z,6.40
2023-01-29T22:27:54.029Z,6.30
2023-01-29T22:30:23.231Z,6.10
2023-01-29T22:32:50.588Z,6.30
2023-01-29T22:35:17.650Z,6.10
2023-01-29T22:37:45.180Z,6.20
2023-01-29T22:40:12.962Z,6.00
2023-01-29T22:42:39.856Z,5.90
2023-01-29T22:45:08.113Z,6.00
2023-01-29T22:47:35.139Z,6.00
2023-01-29T22:50:02.045Z,5.90
2023-01-29T22:52:38.308Z,5.70
2023-01-29T22:55:07.866Z,5.90
2023-01-29T22:57:34.844Z,5.90
2023-01-29T23:00:09.094Z,5.90
2023-01-29T23:02:36.055Z,5.90
2023-01-29T23:05:04.293Z,5.90
2023-01-29T23:07:31.133Z,5.70
2023-01-29T23:09:58.019Z,5.90
2023-01-29T23:12:24.975Z,5.70
2023-01-29T23:14:51.817Z,5.70
2023-01-29T23:17:18.672Z,5.50
2023-01-29T23:19:45.619Z,5.70
2023-01-29T23:22:12.525Z,5.50
2023-01-29T23:24:39.356Z,5.40
2023-01-29T23:27:14.933Z,5.50
2023-01-29T23:29:45.992Z,5.50
2023-01-29T23:32:18.780Z,5.60
2023-01-29T23:34:45.727Z,5.50
2023-01-29T23:37:12.777Z,5.40
2023-01-29T23:39:39.693Z,5.60
2023-01-29T23:42:06.499Z,5.30
2023-01-29T23:44:33.324Z,5.60
2023-01-29T23:47:00.211Z,5.40
2023-01-29T23:49:27.243Z,5.50
2023-01-29T23:51:54.120Z,5.60
2023-01-29T23:54:20.941Z,5.30
2023-01-29T23:56:48.013Z,5.40
2023-01-29T23:59:15.212Z,5.40
